createdAt,value
2019-03-26T00:03:05.457Z,4.43
2019-03-26T00:07:11.225Z,3.90
2019-03-26T00:11:16.935Z,4.33
2019-03-26T00:15:22.646Z,4.50
2019-03-26T00:19:28.340Z,4.03
2019-03-26T00:23:34.025Z,4.33
2019-03-26T00:27:39.713Z,5.10
2019-03-26T00:31:45.476Z,5.00
2019-03-26T00:35:51.170Z,3.93
2019-03-26T00:39:57.239Z,4.83
2019-03-26T00:44:02.946Z,4.33
2019-03-26T00:48:08.647Z,5.70
2019-03-26T00:52:14.354Z,5.07
2019-03-26T00:56:20.139Z,3.93
2019-03-26T01:00:38.114Z,4.70
2019-03-26T01:04:43.881Z,5.90
2019-03-26T01:08:49.574Z,4.73
2019-03-26T01:12:55.754Z,5.97
2019-03-26T01:17:01.563Z,5.77
2019-03-26T01:21:07.403Z,5.63
2019-03-26T01:25:13.077Z,5.53
2019-03-26T01:29:18.767Z,5.03
2019-03-26T01:33:24.499Z,5.75
2019-03-26T01:37:30.206Z,6.17
2019-03-26T01:41:35.896Z,5.43
2019-03-26T01:45:41.589Z,6.40
2019-03-26T01:49:47.281Z,5.30
2019-03-26T01:53:52.977Z,6.27
2019-03-26T01:57:58.894Z,6.30
2019-03-26T02:02:04.636Z,5.93
2019-03-26T02:06:10.363Z,5.92
2019-03-26T02:10:16.070Z,5.87
2019-03-26T02:14:21.778Z,5.90
2019-03-26T02:18:27.492Z,6.30
2019-03-26T02:22:33.172Z,4.83
2019-03-26T02:26:38.865Z,5.03
2019-03-26T02:30:44.553Z,5.87
2019-03-26T02:34:50.415Z,6.10
2019-03-26T02:38:56.323Z,6.40
2019-03-26T02:43:01.996Z,6.27
2019-03-26T02:47:07.699Z,5.70
2019-03-26T02:51:13.363Z,5.97
2019-03-26T02:55:19.116Z,6.23
2019-03-26T02:59:24.801Z,5.83
2019-03-26T03:03:30.534Z,6.43
2019-03-26T03:07:36.323Z,5.67
2019-03-26T03:11:42.012Z,5.37
2019-03-26T03:15:47.744Z,5.37
2019-03-26T03:19:53.472Z,5.37
2019-03-26T03:23:59.409Z,4.90
2019-03-26T03:28:05.087Z,5.90
2019-03-26T03:32:10.783Z,6.10
2019-03-26T03:36:16.492Z,5.80
2019-03-26T03:40:22.191Z,5.03
2019-03-26T03:44:27.888Z,5.40
2019-03-26T03:48:36.506Z,5.60
2019-03-26T03:52:43.029Z,5.23
2019-03-26T03:56:53.194Z,5.33
2019-03-26T04:00:59.109Z,4.70
2019-03-26T04:05:06.595Z,5.60
2019-03-26T04:09:12.303Z,5.50
2019-03-26T04:13:18.005Z,4.97
2019-03-26T04:17:23.701Z,5.13
2019-03-26T04:21:29.384Z,5.57
2019-03-26T04:25:35.108Z,5.50
2019-03-26T04:29:40.812Z,5.30
2019-03-26T04:33:46.601Z,5.60
2019-03-26T04:37:52.566Z,5.57
2019-03-26T04:41:59.455Z,6.10
2019-03-26T04:46:05.235Z,5.87
2019-03-26T04:50:11.238Z,5.73
2019-03-26T04:54:16.926Z,6.40
2019-03-26T04:58:22.606Z,5.33
2019-03-26T05:02:28.360Z,6.80
2019-03-26T05:06:38.324Z,5.80
2019-03-26T05:10:41.580Z,6.70
2019-03-26T05:14:47.277Z,6.80
2019-03-26T05:18:54.015Z,6.00
2019-03-26T05:22:59.786Z,6.60
2019-03-26T05:27:05.481Z,7.20
2019-03-26T05:31:11.227Z,5.90
2019-03-26T05:35:17.075Z,6.23
2019-03-26T05:39:22.749Z,6.87
2019-03-26T05:43:28.459Z,6.33
2019-03-26T05:47:34.140Z,6.07
2019-03-26T05:51:39.828Z,7.10
2019-03-26T05:55:45.520Z,6.83
2019-03-26T05:59:51.262Z,6.50
2019-03-26T06:03:57.064Z,7.20
2019-03-26T06:08:02.758Z,6.13
2019-03-26T06:12:08.517Z,5.97
2019-03-26T06:16:14.203Z,4.70
2019-03-26T06:20:20.270Z,5.87
2019-03-26T06:24:28.567Z,6.77
2019-03-26T06:28:34.320Z,5.97
2019-03-26T06:32:43.574Z,6.70
2019-03-26T06:36:49.315Z,6.60
2019-03-26T06:40:55.003Z,5.47
2019-03-26T06:45:00.868Z,5.83
2019-03-26T06:49:06.560Z,5.13
2019-03-26T06:53:12.247Z,6.53
2019-03-26T06:57:18.005Z,6.57
2019-03-26T07:01:23.705Z,6.37
2019-03-26T07:05:29.404Z,7.23
2019-03-26T07:09:35.107Z,6.57
2019-03-26T07:13:40.812Z,6.53
2019-03-26T07:17:46.527Z,5.63
2019-03-26T07:21:52.230Z,7.33
2019-03-26T07:25:59.668Z,8.53
2019-03-26T07:30:10.182Z,7.67
2019-03-26T07:34:15.940Z,7.73
2019-03-26T07:38:21.784Z,8.23
2019-03-26T07:42:27.498Z,9.00
2019-03-26T07:46:33.291Z,8.03
2019-03-26T07:50:40.538Z,7.50
2019-03-26T07:54:46.220Z,7.33
2019-03-26T07:58:51.919Z,8.37
2019-03-26T08:02:59.058Z,6.83
2019-03-26T08:07:04.827Z,7.70
2019-03-26T08:11:10.539Z,7.57
2019-03-26T08:15:16.301Z,6.12
2019-03-26T08:19:21.973Z,7.60
2019-03-26T08:23:27.710Z,7.77
2019-03-26T08:27:33.436Z,6.80
2019-03-26T08:31:39.210Z,7.40
2019-03-26T08:35:44.895Z,7.13
2019-03-26T08:39:52.399Z,7.40
2019-03-26T08:43:58.202Z,7.10
2019-03-26T08:48:04.063Z,7.57
2019-03-26T08:52:09.782Z,7.47
2019-03-26T08:56:15.502Z,8.00
2019-03-26T09:00:22.315Z,7.85
2019-03-26T09:04:28.013Z,7.10
2019-03-26T09:08:33.689Z,7.20
2019-03-26T09:12:39.789Z,7.60
2019-03-26T09:16:45.674Z,7.30
2019-03-26T09:20:51.514Z,6.90
2019-03-26T09:24:57.418Z,6.57
2019-03-26T09:29:03.137Z,6.60
2019-03-26T09:33:08.835Z,6.30
2019-03-26T09:37:14.532Z,6.37
2019-03-26T09:41:20.337Z,6.37
2019-03-26T09:45:26.092Z,5.80
2019-03-26T09:49:31.790Z,6.80
2019-03-26T09:53:37.600Z,6.40
2019-03-26T09:57:43.298Z,6.30
2019-03-26T10:01:48.995Z,6.13
2019-03-26T10:05:54.691Z,7.57
2019-03-26T10:10:00.472Z,6.80
2019-03-26T10:14:06.275Z,5.23
2019-03-26T10:18:11.982Z,7.30
2019-03-26T10:22:20.018Z,6.97
2019-03-26T10:26:25.193Z,6.87
2019-03-26T10:30:39.793Z,7.30
2019-03-26T10:34:45.449Z,5.90
2019-03-26T10:38:51.147Z,7.20
2019-03-26T10:42:56.991Z,6.93
2019-03-26T10:47:02.847Z,6.93
2019-03-26T10:51:08.584Z,7.05
2019-03-26T10:55:15.279Z,6.42
2019-03-26T10:59:21.127Z,6.87
2019-03-26T11:03:33.955Z,6.33
2019-03-26T11:07:42.546Z,6.20
2019-03-26T11:11:47.179Z,5.60
2019-03-26T11:15:52.878Z,6.17
2019-03-26T11:19:58.670Z,5.50
2019-03-26T11:24:04.734Z,5.63
2019-03-26T11:28:10.500Z,5.40
2019-03-26T11:32:16.177Z,4.90
2019-03-26T11:36:21.877Z,4.53
2019-03-26T11:40:27.633Z,4.10
2019-03-26T11:44:33.335Z,3.57
2019-03-26T11:48:39.122Z,4.60
2019-03-26T11:52:44.875Z,4.20
2019-03-26T11:56:50.683Z,4.00
2019-03-26T12:00:56.471Z,3.92
2019-03-26T12:05:02.239Z,3.43
2019-03-26T12:09:09.028Z,3.30
2019-03-26T12:13:14.706Z,3.40
2019-03-26T12:17:20.411Z,3.33
2019-03-26T12:21:26.104Z,3.50
2019-03-26T12:25:31.792Z,3.10
2019-03-26T12:29:37.499Z,3.77
2019-03-26T12:33:43.185Z,3.10
2019-03-26T12:37:48.931Z,3.27
2019-03-26T12:41:54.691Z,2.73
2019-03-26T12:46:02.024Z,3.30
2019-03-26T12:50:09.566Z,3.90
2019-03-26T12:54:15.275Z,2.73
2019-03-26T12:58:31.217Z,3.13
2019-03-26T13:02:29.436Z,4.07
2019-03-26T13:06:35.405Z,3.20
2019-03-26T13:10:52.740Z,3.03
2019-03-26T13:14:48.574Z,2.90
2019-03-26T13:18:54.258Z,2.83
2019-03-26T13:23:00.074Z,3.23
2019-03-26T13:27:05.817Z,3.03
2019-03-26T13:31:11.514Z,3.30
2019-03-26T13:35:17.546Z,3.55
2019-03-26T13:39:23.239Z,3.27
2019-03-26T13:43:28.936Z,3.30
2019-03-26T13:47:34.606Z,3.20
2019-03-26T13:51:40.310Z,2.87
2019-03-26T13:55:46.002Z,3.00
2019-03-26T13:59:51.764Z,2.70
2019-03-26T14:03:57.460Z,2.30
2019-03-26T14:08:03.275Z,2.63
2019-03-26T14:12:08.987Z,2.67
2019-03-26T14:16:14.686Z,3.13
2019-03-26T14:20:20.804Z,3.77
2019-03-26T14:24:26.438Z,3.00
2019-03-26T14:28:32.129Z,3.60
2019-03-26T14:32:37.825Z,3.97
2019-03-26T14:36:43.545Z,3.40
2019-03-26T14:40:55.057Z,3.70
2019-03-26T14:44:56.788Z,2.80
2019-03-26T14:49:02.533Z,3.80
2019-03-26T14:53:08.234Z,3.40
2019-03-26T14:57:13.928Z,3.47
2019-03-26T15:01:19.625Z,3.13
2019-03-26T15:05:25.408Z,3.20
2019-03-26T15:09:31.196Z,2.83
2019-03-26T15:13:36.879Z,3.87
2019-03-26T15:17:42.594Z,3.77
2019-03-26T15:21:48.293Z,3.23
2019-03-26T15:25:53.968Z,3.00
2019-03-26T15:30:01.371Z,3.60
2019-03-26T15:34:07.142Z,3.87
2019-03-26T15:38:12.908Z,3.37
2019-03-26T15:42:18.600Z,4.73
2019-03-26T15:46:24.305Z,5.10
2019-03-26T15:50:44.947Z,4.10
2019-03-26T15:54:50.645Z,4.10
2019-03-26T15:58:56.338Z,3.90
2019-03-26T16:03:02.180Z,4.33
2019-03-26T16:07:07.932Z,4.50
2019-03-26T16:11:13.626Z,5.70
2019-03-26T16:15:19.343Z,5.80
2019-03-26T16:19:31.987Z,6.00
2019-03-26T16:23:32.438Z,5.37
2019-03-26T16:27:38.134Z,4.57
2019-03-26T16:31:43.821Z,5.37
2019-03-26T16:36:16.637Z,6.90
2019-03-26T16:40:22.449Z,6.20
2019-03-26T16:44:28.168Z,6.77
2019-03-26T16:48:34.833Z,19.93
2019-03-26T16:52:40.601Z,15.33
2019-03-26T16:56:46.298Z,7.70
2019-03-26T17:00:52.983Z,7.47
2019-03-26T17:04:58.735Z,7.17
2019-03-26T17:09:19.655Z,7.67
2019-03-26T17:13:25.504Z,6.43
2019-03-26T17:17:31.289Z,7.30
2019-03-26T17:21:36.981Z,7.10
2019-03-26T17:25:42.686Z,7.10
2019-03-26T17:29:48.416Z,7.60
2019-03-26T17:33:54.095Z,7.73
2019-03-26T17:38:00.535Z,7.80
2019-03-26T17:42:17.026Z,7.67
2019-03-26T17:46:15.729Z,7.63
2019-03-26T17:50:21.509Z,7.03
2019-03-26T17:54:27.228Z,6.83
2019-03-26T17:58:32.926Z,7.03
2019-03-26T18:02:38.673Z,6.53
2019-03-26T18:06:44.379Z,7.03
2019-03-26T18:10:50.132Z,7.70
2019-03-26T18:14:55.842Z,7.00
2019-03-26T18:19:01.833Z,7.20
2019-03-26T18:23:07.588Z,7.60
2019-03-26T18:27:13.350Z,6.83
2019-03-26T18:36:06.746Z,7.33
2019-03-26T18:40:12.775Z,5.93
2019-03-26T18:44:19.443Z,6.77
2019-03-26T18:48:25.166Z,7.27
2019-03-26T18:52:30.870Z,7.17
2019-03-26T18:56:37.533Z,7.10
2019-03-26T19:00:43.269Z,6.30
2019-03-26T19:05:19.065Z,7.47
2019-03-26T19:09:24.775Z,7.23
2019-03-26T19:18:20.471Z,7.17
2019-03-26T19:22:26.193Z,7.53
2019-03-26T19:26:31.887Z,6.70
2019-03-26T19:30:37.671Z,6.53
2019-03-26T19:34:43.419Z,7.33
2019-03-26T19:39:18.904Z,7.13
2019-03-26T19:43:24.713Z,8.30
2019-03-26T19:47:30.495Z,7.23
2019-03-26T19:52:18.067Z,7.10
2019-03-26T19:56:23.824Z,6.77
2019-03-26T20:00:29.535Z,7.60
2019-03-26T20:04:36.284Z,6.97
2019-03-26T20:13:24.616Z,7.30
2019-03-26T20:17:27.722Z,7.93
2019-03-26T20:22:18.369Z,6.60
2019-03-26T20:26:24.060Z,7.17
2019-03-26T20:30:29.756Z,7.17
2019-03-26T20:35:17.503Z,7.30
2019-03-26T20:39:23.278Z,7.30
2019-03-26T20:43:37.264Z,8.00
2019-03-26T20:47:36.491Z,6.67
2019-03-26T20:51:42.267Z,7.13
2019-03-26T20:55:54.182Z,6.83
2019-03-26T20:59:55.724Z,6.40
2019-03-26T21:04:01.712Z,7.33
2019-03-26T21:08:07.834Z,7.47
2019-03-26T21:12:13.540Z,7.57
2019-03-26T21:16:19.332Z,7.97
2019-03-26T21:20:25.024Z,7.57
2019-03-26T21:24:30.821Z,6.20
2019-03-26T21:28:36.548Z,6.87
2019-03-26T21:32:42.322Z,6.07
2019-03-26T21:37:17.902Z,7.00
2019-03-26T21:41:23.761Z,6.27
2019-03-26T21:45:37.406Z,6.67
2019-03-26T21:49:43.236Z,6.40
2019-03-26T21:53:48.922Z,6.37
2019-03-26T21:57:54.667Z,7.30
2019-03-26T22:02:01.592Z,6.37
2019-03-26T22:06:07.279Z,6.10
2019-03-26T22:10:13.420Z,6.17
2019-03-26T22:14:19.110Z,7.23
2019-03-26T22:18:24.832Z,6.83
2019-03-26T22:22:32.174Z,6.97
2019-03-26T22:26:37.859Z,6.80
2019-03-26T22:30:43.642Z,5.67
2019-03-26T22:34:49.303Z,6.17
2019-03-26T22:38:55.009Z,5.23
2019-03-26T22:43:00.835Z,6.67
2019-03-26T22:47:06.732Z,6.70
2019-03-26T22:51:12.509Z,6.67
2019-03-26T22:55:18.189Z,6.23
2019-03-26T23:06:17.077Z,5.87
2019-03-26T23:11:17.241Z,5.23
2019-03-26T23:15:27.745Z,5.50
2019-03-26T23:20:18.570Z,5.40
2019-03-26T23:24:42.558Z,6.27
2019-03-26T23:28:48.256Z,6.30
2019-03-26T23:32:53.974Z,5.78
2019-03-26T23:36:59.716Z,5.80
2019-03-26T23:41:05.604Z,5.50
2019-03-26T23:45:12.054Z,6.13
2019-03-26T23:49:17.745Z,5.70
2019-03-26T23:53:23.444Z,5.73
2019-03-26T23:57:29.147Z,5.73
